sensor_id;sensor_type;location;lat;lon;timestamp;P1;durP1;ratioP1;P2;durP2;ratioP2
36663;SDS011;53333;51.976;20.144;2023-05-10T00:01:11;10.98;;;5.20;;
36663;SDS011;53333;51.976;20.144;2023-05-10T00:03:44;13.03;;;5.53;;
36663;SDS011;53333;51.976;20.144;2023-05-10T00:06:17;11.57;;;5.27;;
36663;SDS011;53333;51.976;20.144;2023-05-10T00:08:51;10.20;;;5.55;;
36663;SDS011;53333;51.976;20.144;2023-05-10T00:11:24;11.07;;;5.22;;
36663;SDS011;53333;51.976;20.144;2023-05-10T00:13:57;9.05;;;5.97;;
36663;SDS011;53333;51.976;20.144;2023-05-10T00:16:30;9.03;;;5.70;;
36663;SDS011;53333;51.976;20.144;2023-05-10T00:19:03;10.23;;;5.60;;
36663;SDS011;53333;51.976;20.144;2023-05-10T00:21:36;10.40;;;5.90;;
36663;SDS011;53333;51.976;20.144;2023-05-10T00:24:10;11.02;;;4.85;;
36663;SDS011;53333;51.976;20.144;2023-05-10T00:26:43;8.38;;;5.13;;
36663;SDS011;53333;51.976;20.144;2023-05-10T00:29:16;9.00;;;5.50;;
36663;SDS011;53333;51.976;20.144;2023-05-10T00:31:49;10.18;;;4.93;;
36663;SDS011;53333;51.976;20.144;2023-05-10T00:34:22;9.53;;;5.40;;
36663;SDS011;53333;51.976;20.144;2023-05-10T00:36:56;6.60;;;4.72;;
36663;SDS011;53333;51.976;20.144;2023-05-10T00:39:30;9.47;;;5.63;;
36663;SDS011;53333;51.976;20.144;2023-05-10T00:42:03;6.75;;;4.78;;
36663;SDS011;53333;51.976;20.144;2023-05-10T00:44:36;8.40;;;5.40;;
36663;SDS011;53333;51.976;20.144;2023-05-10T00:47:09;11.93;;;5.60;;
36663;SDS011;53333;51.976;20.144;2023-05-10T00:49:43;7.20;;;4.43;;
36663;SDS011;53333;51.976;20.144;2023-05-10T00:52:17;8.63;;;5.55;;
36663;SDS011;53333;51.976;20.144;2023-05-10T00:54:52;12.10;;;5.15;;
36663;SDS011;53333;51.976;20.144;2023-05-10T00:57:25;7.97;;;4.60;;
36663;SDS011;53333;51.976;20.144;2023-05-10T00:59:59;10.57;;;6.18;;
36663;SDS011;53333;51.976;20.144;2023-05-10T01:02:32;6.85;;;5.18;;
36663;SDS011;53333;51.976;20.144;2023-05-10T01:05:06;7.57;;;5.72;;
36663;SDS011;53333;51.976;20.144;2023-05-10T01:07:39;7.43;;;5.03;;
36663;SDS011;53333;51.976;20.144;2023-05-10T01:10:15;8.65;;;5.15;;
36663;SDS011;53333;51.976;20.144;2023-05-10T01:12:48;10.52;;;5.32;;
36663;SDS011;53333;51.976;20.144;2023-05-10T01:15:22;7.90;;;5.05;;
36663;SDS011;53333;51.976;20.144;2023-05-10T01:17:56;9.68;;;5.35;;
36663;SDS011;53333;51.976;20.144;2023-05-10T01:20:42;7.25;;;5.10;;
36663;SDS011;53333;51.976;20.144;2023-05-10T01:26:28;9.38;;;4.75;;
36663;SDS011;53333;51.976;20.144;2023-05-10T01:32:21;10.37;;;6.37;;
36663;SDS011;53333;51.976;20.144;2023-05-10T01:35:00;9.90;;;5.10;;
36663;SDS011;53333;51.976;20.144;2023-05-10T01:37:37;8.73;;;5.03;;
36663;SDS011;53333;51.976;20.144;2023-05-10T01:40:17;10.93;;;5.30;;
36663;SDS011;53333;51.976;20.144;2023-05-10T01:43:00;9.23;;;5.38;;
36663;SDS011;53333;51.976;20.144;2023-05-10T01:45:36;18.80;;;8.52;;
36663;SDS011;53333;51.976;20.144;2023-05-10T01:48:16;7.47;;;4.90;;
36663;SDS011;53333;51.976;20.144;2023-05-10T01:50:51;7.00;;;4.35;;
36663;SDS011;53333;51.976;20.144;2023-05-10T01:53:25;7.97;;;5.20;;
36663;SDS011;53333;51.976;20.144;2023-05-10T01:56:00;10.60;;;5.90;;
36663;SDS011;53333;51.976;20.144;2023-05-10T01:58:34;9.07;;;5.13;;
36663;SDS011;53333;51.976;20.144;2023-05-10T02:01:12;7.88;;;5.72;;
36663;SDS011;53333;51.976;20.144;2023-05-10T02:03:47;5.85;;;5.07;;
36663;SDS011;53333;51.976;20.144;2023-05-10T02:06:23;7.35;;;5.18;;
36663;SDS011;53333;51.976;20.144;2023-05-10T02:08:58;8.02;;;5.68;;
36663;SDS011;53333;51.976;20.144;2023-05-10T02:11:34;11.68;;;6.10;;
36663;SDS011;53333;51.976;20.144;2023-05-10T02:14:09;9.48;;;5.53;;
36663;SDS011;53333;51.976;20.144;2023-05-10T02:16:43;10.55;;;5.65;;
36663;SDS011;53333;51.976;20.144;2023-05-10T02:19:19;9.10;;;5.32;;
36663;SDS011;53333;51.976;20.144;2023-05-10T02:21:54;7.22;;;4.95;;
36663;SDS011;53333;51.976;20.144;2023-05-10T02:27:01;6.88;;;5.07;;
36663;SDS011;53333;51.976;20.144;2023-05-10T02:29:35;7.63;;;5.22;;
36663;SDS011;53333;51.976;20.144;2023-05-10T02:34:45;9.00;;;5.47;;
36663;SDS011;53333;51.976;20.144;2023-05-10T02:37:23;10.02;;;5.63;;
36663;SDS011;53333;51.976;20.144;2023-05-10T02:39:57;9.77;;;5.60;;
36663;SDS011;53333;51.976;20.144;2023-05-10T02:42:31;9.63;;;6.05;;
36663;SDS011;53333;51.976;20.144;2023-05-10T02:45:10;7.57;;;5.03;;
36663;SDS011;53333;51.976;20.144;2023-05-10T02:47:46;11.38;;;5.32;;
36663;SDS011;53333;51.976;20.144;2023-05-10T02:50:21;11.05;;;5.45;;
36663;SDS011;53333;51.976;20.144;2023-05-10T02:52:56;12.50;;;5.57;;
36663;SDS011;53333;51.976;20.144;2023-05-10T02:55:35;7.38;;;4.80;;
36663;SDS011;53333;51.976;20.144;2023-05-10T02:58:10;8.05;;;5.20;;
36663;SDS011;53333;51.976;20.144;2023-05-10T03:00:43;6.93;;;4.38;;
36663;SDS011;53333;51.976;20.144;2023-05-10T03:03:16;7.18;;;5.30;;
36663;SDS011;53333;51.976;20.144;2023-05-10T03:05:50;8.25;;;5.53;;
36663;SDS011;53333;51.976;20.144;2023-05-10T03:08:25;8.95;;;5.28;;
36663;SDS011;53333;51.976;20.144;2023-05-10T03:11:05;8.00;;;5.03;;
36663;SDS011;53333;51.976;20.144;2023-05-10T03:13:49;11.23;;;5.40;;
36663;SDS011;53333;51.976;20.144;2023-05-10T03:16:32;8.05;;;5.38;;
36663;SDS011;53333;51.976;20.144;2023-05-10T03:19:16;11.93;;;5.85;;
36663;SDS011;53333;51.976;20.144;2023-05-10T03:21:56;8.00;;;5.00;;
36663;SDS011;53333;51.976;20.144;2023-05-10T03:24:37;9.15;;;5.47;;
36663;SDS011;53333;51.976;20.144;2023-05-10T03:27:13;7.90;;;5.70;;
36663;SDS011;53333;51.976;20.144;2023-05-10T03:29:47;7.60;;;5.43;;
36663;SDS011;53333;51.976;20.144;2023-05-10T03:32:21;11.73;;;5.30;;
36663;SDS011;53333;51.976;20.144;2023-05-10T03:34:54;8.20;;;5.35;;
36663;SDS011;53333;51.976;20.144;2023-05-10T03:37:30;9.93;;;5.43;;
36663;SDS011;53333;51.976;20.144;2023-05-10T03:40:04;7.97;;;4.95;;
36663;SDS011;53333;51.976;20.144;2023-05-10T03:42:40;13.00;;;5.43;;
36663;SDS011;53333;51.976;20.144;2023-05-10T03:45:13;8.00;;;5.27;;
36663;SDS011;53333;51.976;20.144;2023-05-10T03:47:46;12.00;;;5.63;;
36663;SDS011;53333;51.976;20.144;2023-05-10T03:50:19;10.70;;;4.70;;
36663;SDS011;53333;51.976;20.144;2023-05-10T03:52:53;8.45;;;5.47;;
36663;SDS011;53333;51.976;20.144;2023-05-10T03:55:27;8.98;;;5.22;;
36663;SDS011;53333;51.976;20.144;2023-05-10T03:58:01;8.15;;;5.45;;
36663;SDS011;53333;51.976;20.144;2023-05-10T04:00:34;9.85;;;5.47;;
36663;SDS011;53333;51.976;20.144;2023-05-10T04:03:07;12.32;;;6.00;;
36663;SDS011;53333;51.976;20.144;2023-05-10T04:05:40;9.63;;;5.10;;
36663;SDS011;53333;51.976;20.144;2023-05-10T04:08:15;9.40;;;4.97;;
36663;SDS011;53333;51.976;20.144;2023-05-10T04:10:48;11.55;;;5.68;;
36663;SDS011;53333;51.976;20.144;2023-05-10T04:13:21;12.03;;;4.63;;
36663;SDS011;53333;51.976;20.144;2023-05-10T04:15:54;10.00;;;5.87;;
36663;SDS011;53333;51.976;20.144;2023-05-10T04:18:27;10.87;;;5.87;;
36663;SDS011;53333;51.976;20.144;2023-05-10T04:21:00;11.17;;;5.47;;
36663;SDS011;53333;51.976;20.144;2023-05-10T04:23:34;9.70;;;5.40;;
36663;SDS011;53333;51.976;20.144;2023-05-10T04:26:07;10.13;;;5.22;;
36663;SDS011;53333;51.976;20.144;2023-05-10T04:28:40;7.73;;;4.80;;
36663;SDS011;53333;51.976;20.144;2023-05-10T04:31:13;11.30;;;5.18;;
36663;SDS011;53333;51.976;20.144;2023-05-10T04:33:46;8.03;;;5.13;;
36663;SDS011;53333;51.976;20.144;2023-05-10T04:36:19;9.25;;;5.20;;
36663;SDS011;53333;51.976;20.144;2023-05-10T04:38:53;8.10;;;5.17;;
36663;SDS011;53333;51.976;20.144;2023-05-10T04:41:26;8.18;;;4.90;;
36663;SDS011;53333;51.976;20.144;2023-05-10T04:43:59;7.17;;;5.30;;
36663;SDS011;53333;51.976;20.144;2023-05-10T04:46:32;10.30;;;5.63;;
36663;SDS011;53333;51.976;20.144;2023-05-10T04:49:05;7.00;;;4.57;;
36663;SDS011;53333;51.976;20.144;2023-05-10T04:51:37;8.37;;;5.43;;
36663;SDS011;53333;51.976;20.144;2023-05-10T04:54:12;8.33;;;4.90;;
36663;SDS011;53333;51.976;20.144;2023-05-10T04:56:45;14.85;;;5.40;;
36663;SDS011;53333;51.976;20.144;2023-05-10T04:59:20;10.33;;;4.80;;
36663;SDS011;53333;51.976;20.144;2023-05-10T05:01:56;6.60;;;4.95;;
36663;SDS011;53333;51.976;20.144;2023-05-10T05:04:29;12.02;;;5.18;;
36663;SDS011;53333;51.976;20.144;2023-05-10T05:07:03;9.30;;;4.05;;
36663;SDS011;53333;51.976;20.144;2023-05-10T05:09:37;10.98;;;4.85;;
36663;SDS011;53333;51.976;20.144;2023-05-10T05:12:10;5.63;;;3.97;;
36663;SDS011;53333;51.976;20.144;2023-05-10T05:14:45;8.15;;;5.05;;
36663;SDS011;53333;51.976;20.144;2023-05-10T05:17:18;10.30;;;4.77;;
36663;SDS011;53333;51.976;20.144;2023-05-10T05:19:52;8.40;;;4.25;;
36663;SDS011;53333;51.976;20.144;2023-05-10T05:22:24;10.17;;;5.47;;
36663;SDS011;53333;51.976;20.144;2023-05-10T05:25:00;11.88;;;5.10;;
36663;SDS011;53333;51.976;20.144;2023-05-10T05:27:33;11.65;;;5.43;;
36663;SDS011;53333;51.976;20.144;2023-05-10T05:30:07;6.93;;;4.53;;
36663;SDS011;53333;51.976;20.144;2023-05-10T05:32:41;9.40;;;4.30;;
36663;SDS011;53333;51.976;20.144;2023-05-10T05:35:14;6.30;;;3.95;;
36663;SDS011;53333;51.976;20.144;2023-05-10T05:37:47;7.45;;;3.88;;
36663;SDS011;53333;51.976;20.144;2023-05-10T05:40:21;7.07;;;3.73;;
36663;SDS011;53333;51.976;20.144;2023-05-10T05:42:54;8.07;;;4.15;;
36663;SDS011;53333;51.976;20.144;2023-05-10T05:45:27;8.18;;;4.35;;
36663;SDS011;53333;51.976;20.144;2023-05-10T05:48:00;8.88;;;4.30;;
36663;SDS011;53333;51.976;20.144;2023-05-10T05:50:33;6.40;;;4.65;;
36663;SDS011;53333;51.976;20.144;2023-05-10T05:53:08;7.07;;;4.00;;
36663;SDS011;53333;51.976;20.144;2023-05-10T05:55:51;19.70;;;4.85;;
36663;SDS011;53333;51.976;20.144;2023-05-10T06:00:58;9.95;;;3.90;;
36663;SDS011;53333;51.976;20.144;2023-05-10T06:03:31;10.75;;;3.53;;
36663;SDS011;53333;51.976;20.144;2023-05-10T06:06:04;9.43;;;3.78;;
36663;SDS011;53333;51.976;20.144;2023-05-10T06:08:38;6.95;;;3.65;;
36663;SDS011;53333;51.976;20.144;2023-05-10T06:11:12;5.85;;;3.17;;
36663;SDS011;53333;51.976;20.144;2023-05-10T06:13:45;5.35;;;3.47;;
36663;SDS011;53333;51.976;20.144;2023-05-10T06:16:18;7.80;;;2.95;;
36663;SDS011;53333;51.976;20.144;2023-05-10T06:18:51;6.18;;;2.70;;
36663;SDS011;53333;51.976;20.144;2023-05-10T06:21:24;4.18;;;2.83;;
36663;SDS011;53333;51.976;20.144;2023-05-10T06:23:57;4.45;;;3.30;;
36663;SDS011;53333;51.976;20.144;2023-05-10T06:26:31;9.30;;;3.20;;
36663;SDS011;53333;51.976;20.144;2023-05-10T06:29:04;14.43;;;3.72;;
36663;SDS011;53333;51.976;20.144;2023-05-10T06:31:37;7.22;;;4.57;;
36663;SDS011;53333;51.976;20.144;2023-05-10T06:34:10;10.27;;;3.17;;
36663;SDS011;53333;51.976;20.144;2023-05-10T06:36:44;9.25;;;3.15;;
36663;SDS011;53333;51.976;20.144;2023-05-10T06:39:18;6.65;;;3.38;;
36663;SDS011;53333;51.976;20.144;2023-05-10T06:41:52;4.15;;;3.30;;
36663;SDS011;53333;51.976;20.144;2023-05-10T06:44:25;8.10;;;3.42;;
36663;SDS011;53333;51.976;20.144;2023-05-10T06:46:58;4.75;;;2.70;;
36663;SDS011;53333;51.976;20.144;2023-05-10T06:49:31;6.90;;;3.13;;
36663;SDS011;53333;51.976;20.144;2023-05-10T06:52:04;6.47;;;2.72;;
36663;SDS011;53333;51.976;20.144;2023-05-10T06:54:37;12.98;;;3.55;;
36663;SDS011;53333;51.976;20.144;2023-05-10T06:57:11;6.60;;;3.17;;
36663;SDS011;53333;51.976;20.144;2023-05-10T07:00:02;6.63;;;2.88;;
36663;SDS011;53333;51.976;20.144;2023-05-10T07:02:36;9.57;;;2.88;;
36663;SDS011;53333;51.976;20.144;2023-05-10T07:05:09;4.75;;;2.40;;
36663;SDS011;53333;51.976;20.144;2023-05-10T07:07:43;4.30;;;2.90;;
36663;SDS011;53333;51.976;20.144;2023-05-10T07:10:16;9.77;;;3.25;;
36663;SDS011;53333;51.976;20.144;2023-05-10T07:12:50;6.82;;;3.20;;
36663;SDS011;53333;51.976;20.144;2023-05-10T07:15:23;10.90;;;2.92;;
36663;SDS011;53333;51.976;20.144;2023-05-10T07:17:56;11.15;;;3.70;;
36663;SDS011;53333;51.976;20.144;2023-05-10T07:20:29;6.57;;;3.80;;
36663;SDS011;53333;51.976;20.144;2023-05-10T07:23:02;9.05;;;2.92;;
36663;SDS011;53333;51.976;20.144;2023-05-10T07:25:35;6.70;;;3.15;;
36663;SDS011;53333;51.976;20.144;2023-05-10T07:28:10;6.57;;;2.78;;
36663;SDS011;53333;51.976;20.144;2023-05-10T07:30:43;9.60;;;2.95;;
36663;SDS011;53333;51.976;20.144;2023-05-10T07:33:16;4.50;;;2.65;;
36663;SDS011;53333;51.976;20.144;2023-05-10T07:35:49;11.43;;;3.22;;
36663;SDS011;53333;51.976;20.144;2023-05-10T07:38:22;6.03;;;2.45;;
36663;SDS011;53333;51.976;20.144;2023-05-10T07:40:55;5.40;;;2.67;;
36663;SDS011;53333;51.976;20.144;2023-05-10T07:43:30;7.00;;;2.67;;
36663;SDS011;53333;51.976;20.144;2023-05-10T07:46:03;9.52;;;2.35;;
36663;SDS011;53333;51.976;20.144;2023-05-10T07:48:36;4.13;;;2.45;;
36663;SDS011;53333;51.976;20.144;2023-05-10T07:51:10;7.60;;;2.67;;
36663;SDS011;53333;51.976;20.144;2023-05-10T07:53:43;11.85;;;2.55;;
36663;SDS011;53333;51.976;20.144;2023-05-10T07:56:20;7.00;;;2.67;;
36663;SDS011;53333;51.976;20.144;2023-05-10T07:58:56;6.55;;;2.28;;
36663;SDS011;53333;51.976;20.144;2023-05-10T08:01:30;4.43;;;2.65;;
36663;SDS011;53333;51.976;20.144;2023-05-10T08:04:04;13.75;;;2.75;;
36663;SDS011;53333;51.976;20.144;2023-05-10T08:06:37;8.57;;;2.42;;
36663;SDS011;53333;51.976;20.144;2023-05-10T08:09:10;8.23;;;2.55;;
36663;SDS011;53333;51.976;20.144;2023-05-10T08:11:43;8.38;;;2.38;;
36663;SDS011;53333;51.976;20.144;2023-05-10T08:14:17;3.63;;;2.20;;
36663;SDS011;53333;51.976;20.144;2023-05-10T08:16:51;10.20;;;2.10;;
36663;SDS011;53333;51.976;20.144;2023-05-10T08:19:24;7.93;;;2.60;;
36663;SDS011;53333;51.976;20.144;2023-05-10T08:21:57;4.15;;;2.42;;
36663;SDS011;53333;51.976;20.144;2023-05-10T08:24:29;7.63;;;3.17;;
36663;SDS011;53333;51.976;20.144;2023-05-10T08:27:02;8.55;;;4.10;;
36663;SDS011;53333;51.976;20.144;2023-05-10T08:29:37;4.40;;;2.30;;
36663;SDS011;53333;51.976;20.144;2023-05-10T08:32:20;5.20;;;2.50;;
36663;SDS011;53333;51.976;20.144;2023-05-10T08:34:54;6.53;;;2.45;;
36663;SDS011;53333;51.976;20.144;2023-05-10T08:37:29;6.82;;;2.63;;
36663;SDS011;53333;51.976;20.144;2023-05-10T08:40:03;9.10;;;2.50;;
36663;SDS011;53333;51.976;20.144;2023-05-10T08:42:39;4.32;;;1.83;;
36663;SDS011;53333;51.976;20.144;2023-05-10T08:45:16;2.67;;;2.05;;
36663;SDS011;53333;51.976;20.144;2023-05-10T08:47:50;6.30;;;2.05;;
36663;SDS011;53333;51.976;20.144;2023-05-10T08:50:25;4.32;;;2.10;;
36663;SDS011;53333;51.976;20.144;2023-05-10T08:55:32;4.30;;;2.05;;
36663;SDS011;53333;51.976;20.144;2023-05-10T08:58:08;7.53;;;2.80;;
36663;SDS011;53333;51.976;20.144;2023-05-10T09:00:43;3.15;;;2.28;;
36663;SDS011;53333;51.976;20.144;2023-05-10T09:03:16;7.35;;;4.00;;
36663;SDS011;53333;51.976;20.144;2023-05-10T09:05:50;3.33;;;2.25;;
36663;SDS011;53333;51.976;20.144;2023-05-10T09:08:23;5.93;;;2.38;;
36663;SDS011;53333;51.976;20.144;2023-05-10T09:10:57;4.63;;;2.25;;
36663;SDS011;53333;51.976;20.144;2023-05-10T09:13:32;7.43;;;2.00;;
36663;SDS011;53333;51.976;20.144;2023-05-10T09:16:07;14.50;;;3.78;;
36663;SDS011;53333;51.976;20.144;2023-05-10T09:18:51;9.70;;;3.88;;
36663;SDS011;53333;51.976;20.144;2023-05-10T09:21:25;3.38;;;1.95;;
36663;SDS011;53333;51.976;20.144;2023-05-10T09:23:59;7.25;;;2.50;;
36663;SDS011;53333;51.976;20.144;2023-05-10T09:26:35;10.30;;;2.13;;
36663;SDS011;53333;51.976;20.144;2023-05-10T09:29:19;10.68;;;6.97;;
36663;SDS011;53333;51.976;20.144;2023-05-10T09:31:54;4.38;;;2.20;;
36663;SDS011;53333;51.976;20.144;2023-05-10T09:34:28;4.47;;;2.10;;
36663;SDS011;53333;51.976;20.144;2023-05-10T09:37:02;5.72;;;2.50;;
36663;SDS011;53333;51.976;20.144;2023-05-10T09:39:36;3.83;;;1.88;;
36663;SDS011;53333;51.976;20.144;2023-05-10T09:42:09;5.30;;;2.00;;
36663;SDS011;53333;51.976;20.144;2023-05-10T09:44:42;4.60;;;1.92;;
36663;SDS011;53333;51.976;20.144;2023-05-10T09:47:18;7.00;;;2.22;;
36663;SDS011;53333;51.976;20.144;2023-05-10T09:49:52;23.77;;;16.02;;
36663;SDS011;53333;51.976;20.144;2023-05-10T09:52:27;4.72;;;2.17;;
36663;SDS011;53333;51.976;20.144;2023-05-10T09:55:00;2.72;;;1.90;;
36663;SDS011;53333;51.976;20.144;2023-05-10T09:57:34;7.47;;;2.28;;
36663;SDS011;53333;51.976;20.144;2023-05-10T10:00:07;4.10;;;1.73;;
36663;SDS011;53333;51.976;20.144;2023-05-10T10:02:46;4.10;;;1.75;;
36663;SDS011;53333;51.976;20.144;2023-05-10T10:05:20;4.65;;;1.90;;
36663;SDS011;53333;51.976;20.144;2023-05-10T10:07:53;5.60;;;1.70;;
36663;SDS011;53333;51.976;20.144;2023-05-10T10:10:27;4.57;;;1.83;;
36663;SDS011;53333;51.976;20.144;2023-05-10T10:13:01;5.28;;;2.10;;
36663;SDS011;53333;51.976;20.144;2023-05-10T10:15:36;6.88;;;2.22;;
36663;SDS011;53333;51.976;20.144;2023-05-10T10:18:12;10.35;;;2.60;;
36663;SDS011;53333;51.976;20.144;2023-05-10T10:20:47;7.25;;;3.10;;
36663;SDS011;53333;51.976;20.144;2023-05-10T10:23:19;8.95;;;2.33;;
36663;SDS011;53333;51.976;20.144;2023-05-10T10:25:52;6.53;;;2.75;;
36663;SDS011;53333;51.976;20.144;2023-05-10T10:28:31;8.13;;;2.80;;
36663;SDS011;53333;51.976;20.144;2023-05-10T10:31:13;8.50;;;2.30;;
36663;SDS011;53333;51.976;20.144;2023-05-10T10:33:59;5.70;;;2.00;;
36663;SDS011;53333;51.976;20.144;2023-05-10T10:36:39;3.90;;;1.98;;
36663;SDS011;53333;51.976;20.144;2023-05-10T10:39:13;5.55;;;2.20;;
36663;SDS011;53333;51.976;20.144;2023-05-10T10:41:51;3.80;;;2.13;;
36663;SDS011;53333;51.976;20.144;2023-05-10T10:44:25;9.65;;;2.35;;
36663;SDS011;53333;51.976;20.144;2023-05-10T10:47:22;3.70;;;1.85;;
36663;SDS011;53333;51.976;20.144;2023-05-10T10:50:04;4.32;;;1.98;;
36663;SDS011;53333;51.976;20.144;2023-05-10T10:52:39;7.72;;;2.30;;
36663;SDS011;53333;51.976;20.144;2023-05-10T10:55:13;6.70;;;1.80;;
36663;SDS011;53333;51.976;20.144;2023-05-10T10:57:50;3.72;;;2.03;;
36663;SDS011;53333;51.976;20.144;2023-05-10T11:00:32;3.25;;;2.15;;
36663;SDS011;53333;51.976;20.144;2023-05-10T11:03:08;4.38;;;2.10;;
36663;SDS011;53333;51.976;20.144;2023-05-10T11:05:48;5.10;;;1.90;;
36663;SDS011;53333;51.976;20.144;2023-05-10T11:08:26;5.72;;;1.98;;
36663;SDS011;53333;51.976;20.144;2023-05-10T11:11:03;4.78;;;2.10;;
36663;SDS011;53333;51.976;20.144;2023-05-10T11:13:39;7.22;;;2.10;;
36663;SDS011;53333;51.976;20.144;2023-05-10T11:16:17;8.32;;;1.98;;
36663;SDS011;53333;51.976;20.144;2023-05-10T11:18:52;4.82;;;2.15;;
36663;SDS011;53333;51.976;20.144;2023-05-10T11:21:27;3.58;;;1.55;;
36663;SDS011;53333;51.976;20.144;2023-05-10T11:24:01;2.80;;;2.20;;
36663;SDS011;53333;51.976;20.144;2023-05-10T11:29:17;6.35;;;2.20;;
36663;SDS011;53333;51.976;20.144;2023-05-10T11:31:51;4.22;;;2.38;;
36663;SDS011;53333;51.976;20.144;2023-05-10T11:34:24;3.85;;;2.30;;
36663;SDS011;53333;51.976;20.144;2023-05-10T11:36:59;5.72;;;2.20;;
36663;SDS011;53333;51.976;20.144;2023-05-10T11:39:32;4.65;;;2.20;;
36663;SDS011;53333;51.976;20.144;2023-05-10T11:42:05;25.63;;;3.20;;
36663;SDS011;53333;51.976;20.144;2023-05-10T11:44:40;5.38;;;2.38;;
36663;SDS011;53333;51.976;20.144;2023-05-10T11:47:15;7.95;;;2.33;;
36663;SDS011;53333;51.976;20.144;2023-05-10T11:49:48;5.80;;;2.38;;
36663;SDS011;53333;51.976;20.144;2023-05-10T11:52:23;5.55;;;2.53;;
36663;SDS011;53333;51.976;20.144;2023-05-10T11:54:57;5.97;;;2.38;;
36663;SDS011;53333;51.976;20.144;2023-05-10T11:57:30;3.25;;;2.00;;
36663;SDS011;53333;51.976;20.144;2023-05-10T12:00:03;5.55;;;2.17;;
36663;SDS011;53333;51.976;20.144;2023-05-10T12:02:38;6.68;;;2.65;;
36663;SDS011;53333;51.976;20.144;2023-05-10T12:05:11;5.65;;;2.40;;
36663;SDS011;53333;51.976;20.144;2023-05-10T12:07:46;7.03;;;2.03;;
36663;SDS011;53333;51.976;20.144;2023-05-10T12:10:24;4.78;;;2.20;;
36663;SDS011;53333;51.976;20.144;2023-05-10T12:12:58;6.45;;;2.63;;
36663;SDS011;53333;51.976;20.144;2023-05-10T12:15:31;5.95;;;2.30;;
36663;SDS011;53333;51.976;20.144;2023-05-10T12:18:04;5.53;;;1.98;;
36663;SDS011;53333;51.976;20.144;2023-05-10T12:20:37;5.32;;;2.25;;
36663;SDS011;53333;51.976;20.144;2023-05-10T12:23:13;5.50;;;2.25;;
36663;SDS011;53333;51.976;20.144;2023-05-10T12:25:46;5.45;;;2.38;;
36663;SDS011;53333;51.976;20.144;2023-05-10T12:28:19;7.43;;;2.30;;
36663;SDS011;53333;51.976;20.144;2023-05-10T12:30:53;9.45;;;2.65;;
36663;SDS011;53333;51.976;20.144;2023-05-10T12:33:26;6.85;;;2.90;;
36663;SDS011;53333;51.976;20.144;2023-05-10T12:35:59;7.50;;;2.40;;
36663;SDS011;53333;51.976;20.144;2023-05-10T12:38:34;8.10;;;1.92;;
36663;SDS011;53333;51.976;20.144;2023-05-10T12:41:09;4.63;;;2.53;;
36663;SDS011;53333;51.976;20.144;2023-05-10T12:43:44;5.32;;;2.60;;
36663;SDS011;53333;51.976;20.144;2023-05-10T12:46:17;4.57;;;2.20;;
36663;SDS011;53333;51.976;20.144;2023-05-10T12:48:51;5.13;;;2.22;;
36663;SDS011;53333;51.976;20.144;2023-05-10T12:51:39;4.25;;;2.42;;
36663;SDS011;53333;51.976;20.144;2023-05-10T12:54:13;6.13;;;1.77;;
36663;SDS011;53333;51.976;20.144;2023-05-10T12:56:46;3.50;;;2.00;;
36663;SDS011;53333;51.976;20.144;2023-05-10T12:59:19;7.05;;;2.33;;
36663;SDS011;53333;51.976;20.144;2023-05-10T13:01:52;7.78;;;2.78;;
36663;SDS011;53333;51.976;20.144;2023-05-10T13:04:25;5.70;;;2.20;;
36663;SDS011;53333;51.976;20.144;2023-05-10T13:06:58;4.22;;;2.72;;
36663;SDS011;53333;51.976;20.144;2023-05-10T13:09:32;4.95;;;2.28;;
36663;SDS011;53333;51.976;20.144;2023-05-10T13:12:06;4.53;;;1.80;;
36663;SDS011;53333;51.976;20.144;2023-05-10T13:14:41;6.28;;;2.38;;
36663;SDS011;53333;51.976;20.144;2023-05-10T13:17:13;5.55;;;2.10;;
36663;SDS011;53333;51.976;20.144;2023-05-10T13:19:46;6.45;;;2.50;;
36663;SDS011;53333;51.976;20.144;2023-05-10T13:22:19;3.88;;;1.73;;
36663;SDS011;53333;51.976;20.144;2023-05-10T13:25:08;8.52;;;2.13;;
36663;SDS011;53333;51.976;20.144;2023-05-10T13:27:42;7.28;;;2.53;;
36663;SDS011;53333;51.976;20.144;2023-05-10T13:30:15;6.82;;;2.08;;
36663;SDS011;53333;51.976;20.144;2023-05-10T13:35:21;3.97;;;1.88;;
36663;SDS011;53333;51.976;20.144;2023-05-10T13:37:54;7.93;;;2.42;;
36663;SDS011;53333;51.976;20.144;2023-05-10T13:40:30;7.28;;;2.40;;
36663;SDS011;53333;51.976;20.144;2023-05-10T13:43:03;6.78;;;2.58;;
36663;SDS011;53333;51.976;20.144;2023-05-10T13:45:36;6.07;;;2.33;;
36663;SDS011;53333;51.976;20.144;2023-05-10T13:48:09;8.75;;;2.40;;
36663;SDS011;53333;51.976;20.144;2023-05-10T13:50:42;13.55;;;3.95;;
36663;SDS011;53333;51.976;20.144;2023-05-10T13:53:15;4.65;;;2.05;;
36663;SDS011;53333;51.976;20.144;2023-05-10T13:55:50;4.10;;;2.90;;
36663;SDS011;53333;51.976;20.144;2023-05-10T13:58:23;4.85;;;2.17;;
36663;SDS011;53333;51.976;20.144;2023-05-10T14:00:56;4.85;;;2.20;;
36663;SDS011;53333;51.976;20.144;2023-05-10T14:03:29;5.50;;;2.42;;
36663;SDS011;53333;51.976;20.144;2023-05-10T14:06:02;9.05;;;2.20;;
36663;SDS011;53333;51.976;20.144;2023-05-10T14:08:35;2.90;;;2.05;;
36663;SDS011;53333;51.976;20.144;2023-05-10T14:11:10;10.43;;;6.18;;
36663;SDS011;53333;51.976;20.144;2023-05-10T14:13:43;4.40;;;2.20;;
36663;SDS011;53333;51.976;20.144;2023-05-10T14:16:16;8.15;;;2.22;;
36663;SDS011;53333;51.976;20.144;2023-05-10T14:18:49;7.88;;;2.20;;
36663;SDS011;53333;51.976;20.144;2023-05-10T14:21:22;6.63;;;2.72;;
36663;SDS011;53333;51.976;20.144;2023-05-10T14:23:55;5.75;;;2.50;;
36663;SDS011;53333;51.976;20.144;2023-05-10T14:26:30;5.90;;;2.67;;
36663;SDS011;53333;51.976;20.144;2023-05-10T14:29:03;7.90;;;2.67;;
36663;SDS011;53333;51.976;20.144;2023-05-10T14:31:36;4.88;;;2.85;;
36663;SDS011;53333;51.976;20.144;2023-05-10T14:34:09;9.25;;;2.47;;
36663;SDS011;53333;51.976;20.144;2023-05-10T14:36:42;8.13;;;2.85;;
36663;SDS011;53333;51.976;20.144;2023-05-10T14:39:15;3.08;;;2.42;;
36663;SDS011;53333;51.976;20.144;2023-05-10T14:41:49;8.50;;;2.65;;
36663;SDS011;53333;51.976;20.144;2023-05-10T14:44:23;10.00;;;2.72;;
36663;SDS011;53333;51.976;20.144;2023-05-10T14:46:56;8.52;;;2.40;;
36663;SDS011;53333;51.976;20.144;2023-05-10T14:49:29;6.07;;;2.47;;
36663;SDS011;53333;51.976;20.144;2023-05-10T14:52:03;9.25;;;2.67;;
36663;SDS011;53333;51.976;20.144;2023-05-10T14:54:35;8.63;;;2.63;;
36663;SDS011;53333;51.976;20.144;2023-05-10T14:57:10;5.18;;;2.63;;
36663;SDS011;53333;51.976;20.144;2023-05-10T14:59:43;8.77;;;2.63;;
36663;SDS011;53333;51.976;20.144;2023-05-10T15:02:16;8.45;;;2.17;;
36663;SDS011;53333;51.976;20.144;2023-05-10T15:04:50;6.90;;;3.00;;
36663;SDS011;53333;51.976;20.144;2023-05-10T15:09:56;6.38;;;2.80;;
36663;SDS011;53333;51.976;20.144;2023-05-10T15:12:30;4.80;;;3.17;;
36663;SDS011;53333;51.976;20.144;2023-05-10T15:15:04;10.80;;;2.40;;
36663;SDS011;53333;51.976;20.144;2023-05-10T15:17:37;8.38;;;2.78;;
36663;SDS011;53333;51.976;20.144;2023-05-10T15:20:11;10.25;;;5.32;;
36663;SDS011;53333;51.976;20.144;2023-05-10T15:25:17;7.22;;;3.35;;
36663;SDS011;53333;51.976;20.144;2023-05-10T15:27:51;3.80;;;2.80;;
36663;SDS011;53333;51.976;20.144;2023-05-10T15:30:24;6.32;;;2.55;;
36663;SDS011;53333;51.976;20.144;2023-05-10T15:32:57;5.63;;;2.70;;
36663;SDS011;53333;51.976;20.144;2023-05-10T15:35:30;9.40;;;2.53;;
36663;SDS011;53333;51.976;20.144;2023-05-10T15:38:03;6.88;;;3.03;;
36663;SDS011;53333;51.976;20.144;2023-05-10T15:43:11;5.38;;;2.85;;